createdAt,value
2019-02-09T00:00:35.874Z,88.74
2019-02-09T00:01:35.847Z,88.43
2019-02-09T00:02:35.826Z,88.43
2019-02-09T00:03:35.867Z,88.43
2019-02-09T00:04:35.801Z,88.84
2019-02-09T00:05:35.790Z,88.84
2019-02-09T00:06:35.780Z,89.15
2019-02-09T00:07:35.778Z,88.95
2019-02-09T00:08:36.478Z,89.05
2019-02-09T00:09:35.748Z,89.36
2019-02-09T00:10:35.741Z,89.67
2019-02-09T00:11:35.726Z,89.46
2019-02-09T00:12:35.732Z,89.56
2019-02-09T00:13:35.733Z,89.46
2019-02-09T00:14:35.785Z,89.36
2019-02-09T00:15:35.706Z,89.56
2019-02-09T00:16:35.693Z,89.46
2019-02-09T00:17:35.675Z,89.25
2019-02-09T00:18:35.685Z,89.25
2019-02-09T00:19:35.722Z,89.87
2019-02-09T00:20:35.645Z,88.95
2019-02-09T00:21:35.649Z,89.25
2019-02-09T00:22:35.640Z,89.25
2019-02-09T00:23:35.639Z,89.25
2019-02-09T00:24:35.662Z,89.56
2019-02-09T00:25:35.675Z,89.31
2019-02-09T00:26:35.579Z,88.49
2019-02-09T00:27:35.635Z,89.05
2019-02-09T00:28:35.580Z,89.01
2019-02-09T00:29:35.572Z,89.15
2019-02-09T00:30:35.524Z,89.15
2019-02-09T00:31:35.590Z,89.36
2019-02-09T00:32:35.549Z,89.42
2019-02-09T00:33:35.557Z,89.83
2019-02-09T00:34:35.500Z,89.05
2019-02-09T00:35:35.559Z,89.01
2019-02-09T00:36:35.460Z,89.05
2019-02-09T00:37:35.471Z,89.15
2019-02-09T00:38:35.456Z,88.90
2019-02-09T00:39:35.442Z,89.05
2019-02-09T00:40:35.597Z,89.01
2019-02-09T00:41:35.504Z,89.05
2019-02-09T00:42:35.452Z,89.05
2019-02-09T00:43:35.527Z,89.05
2019-02-09T00:44:35.352Z,89.87
2019-02-09T00:45:35.369Z,89.25
2019-02-09T00:46:35.393Z,89.05
2019-02-09T00:47:42.595Z,88.95
2019-02-09T00:48:36.020Z,88.90
2019-02-09T00:49:35.306Z,88.84
2019-02-09T00:50:35.301Z,89.01
2019-02-09T00:51:35.407Z,89.01
2019-02-09T00:52:35.387Z,88.29
2019-02-09T00:53:36.019Z,88.39
2019-02-09T00:54:35.282Z,89.11
2019-02-09T00:55:35.250Z,88.49
2019-02-09T00:56:35.237Z,88.59
2019-02-09T00:57:35.254Z,88.39
2019-02-09T00:58:35.210Z,89.15
2019-02-09T00:59:35.258Z,89.11
2019-02-09T01:00:35.170Z,89.22
2019-02-09T01:01:35.152Z,89.11
2019-02-09T01:02:35.149Z,89.01
2019-02-09T01:03:35.161Z,89.31
2019-02-09T01:04:35.366Z,89.01
2019-02-09T01:05:35.118Z,89.01
2019-02-09T01:06:35.100Z,89.22
2019-02-09T01:07:35.196Z,88.95
2019-02-09T01:08:35.089Z,89.15
2019-02-09T01:09:35.079Z,89.15
2019-02-09T01:10:35.257Z,88.95
2019-02-09T01:11:35.069Z,89.25
2019-02-09T01:12:35.039Z,89.15
2019-02-09T01:13:35.054Z,89.22
2019-02-09T01:14:35.045Z,89.05
2019-02-09T01:15:35.027Z,88.80
2019-02-09T01:16:35.078Z,89.22
2019-02-09T01:17:34.998Z,89.25
2019-02-09T01:18:34.980Z,89.11
2019-02-09T01:19:34.988Z,89.05
2019-02-09T01:20:34.970Z,89.25
2019-02-09T01:21:35.022Z,89.56
2019-02-09T01:22:34.956Z,89.52
2019-02-09T01:23:35.113Z,89.46
2019-02-09T01:24:34.923Z,89.52
2019-02-09T01:25:34.921Z,89.77
2019-02-09T01:26:34.975Z,89.56
2019-02-09T01:27:34.846Z,89.87
2019-02-09T01:28:34.905Z,89.67
2019-02-09T01:29:34.828Z,89.67
2019-02-09T01:30:34.813Z,89.97
2019-02-09T01:31:34.805Z,90.18
2019-02-09T01:32:34.794Z,90.08
2019-02-09T01:33:34.805Z,90.39
2019-02-09T01:34:35.530Z,90.94
2019-02-09T01:35:34.807Z,91.05
2019-02-09T01:36:34.787Z,90.53
2019-02-09T01:37:34.778Z,90.94
2019-02-09T01:38:34.787Z,89.81
2019-02-09T01:39:34.859Z,89.81
2019-02-09T01:40:34.766Z,90.84
2019-02-09T01:41:34.719Z,89.91
2019-02-09T01:42:34.709Z,89.77
2019-02-09T01:43:34.692Z,89.71
2019-02-09T01:44:34.821Z,89.50
2019-02-09T01:45:34.679Z,89.91
2019-02-09T01:46:34.684Z,89.50
2019-02-09T01:47:35.530Z,89.81
2019-02-09T01:48:34.651Z,89.71
2019-02-09T01:49:34.637Z,89.91
2019-02-09T01:50:34.676Z,89.91
2019-02-09T01:51:34.634Z,89.40
2019-02-09T01:52:34.649Z,89.77
2019-02-09T01:53:34.577Z,89.61
2019-02-09T01:54:34.618Z,89.67
2019-02-09T01:55:34.645Z,89.36
2019-02-09T01:56:34.560Z,89.36
2019-02-09T01:57:34.612Z,89.46
2019-02-09T01:58:34.521Z,89.91
2019-02-09T01:59:34.564Z,88.99
2019-02-09T02:00:35.531Z,89.56
2019-02-09T02:01:34.522Z,89.56
2019-02-09T02:02:34.531Z,88.84
2019-02-09T02:03:34.518Z,89.15
2019-02-09T02:04:34.480Z,89.36
2019-02-09T02:05:34.465Z,89.05
2019-02-09T02:06:34.478Z,89.25
2019-02-09T02:07:34.410Z,89.19
2019-02-09T02:08:34.431Z,89.25
2019-02-09T02:09:34.516Z,89.15
2019-02-09T02:10:34.393Z,89.15
2019-02-09T02:11:34.477Z,89.29
2019-02-09T02:12:34.374Z,89.15
2019-02-09T02:13:34.381Z,88.84
2019-02-09T02:14:34.354Z,88.43
2019-02-09T02:15:34.404Z,88.95
2019-02-09T02:16:34.343Z,88.53
2019-02-09T02:17:34.309Z,88.43
2019-02-09T02:18:34.310Z,88.43
2019-02-09T02:19:35.034Z,88.95
2019-02-09T02:20:34.318Z,88.26
2019-02-09T02:21:34.279Z,88.43
2019-02-09T02:22:34.242Z,88.43
2019-02-09T02:23:34.239Z,88.64
2019-02-09T02:24:34.487Z,88.74
2019-02-09T02:25:34.215Z,88.74
2019-02-09T02:26:34.208Z,88.74
2019-02-09T02:27:34.257Z,88.64
2019-02-09T02:28:34.270Z,88.53
2019-02-09T02:29:34.170Z,88.64
2019-02-09T02:30:34.176Z,88.12
2019-02-09T02:31:34.283Z,87.92
2019-02-09T02:32:34.150Z,88.53
2019-02-09T02:33:34.157Z,88.18
2019-02-09T02:34:34.138Z,88.29
2019-02-09T02:35:34.176Z,87.36
2019-02-09T02:36:34.115Z,87.67
2019-02-09T02:37:34.108Z,87.67
2019-02-09T02:38:34.072Z,87.36
2019-02-09T02:39:34.137Z,86.85
2019-02-09T02:40:34.059Z,86.54
2019-02-09T02:41:34.047Z,86.85
2019-02-09T02:42:34.022Z,86.08
2019-02-09T02:43:34.228Z,86.64
2019-02-09T02:44:34.114Z,86.23
2019-02-09T02:45:34.018Z,86.29
2019-02-09T02:46:34.033Z,86.54
2019-02-09T02:47:33.980Z,86.60
2019-02-09T02:48:33.969Z,86.40
2019-02-09T02:49:33.966Z,86.19
2019-02-09T02:50:34.031Z,85.68
2019-02-09T02:51:33.981Z,85.88
2019-02-09T02:52:33.947Z,86.40
2019-02-09T02:53:33.933Z,86.29
2019-02-09T02:54:33.938Z,86.19
2019-02-09T02:55:33.885Z,86.33
2019-02-09T02:56:33.918Z,86.19
2019-02-09T02:57:33.913Z,85.82
2019-02-09T02:58:33.855Z,85.57
2019-02-09T02:59:33.885Z,85.57
2019-02-09T03:00:33.876Z,85.57
2019-02-09T03:01:33.837Z,85.26
2019-02-09T03:02:33.943Z,85.78
2019-02-09T03:03:33.801Z,85.16
2019-02-09T03:04:33.783Z,85.57
2019-02-09T03:05:33.792Z,84.75
2019-02-09T03:06:33.886Z,84.85
2019-02-09T03:07:33.757Z,85.26
2019-02-09T03:08:33.740Z,84.64
2019-02-09T03:09:33.757Z,84.75
2019-02-09T03:10:33.724Z,84.85
2019-02-09T03:11:33.806Z,83.72
2019-02-09T03:12:33.825Z,83.41
2019-02-09T03:13:33.688Z,83.20
2019-02-09T03:14:33.681Z,83.72
2019-02-09T03:15:33.680Z,83.72
2019-02-09T03:16:33.657Z,83.11
2019-02-09T03:17:33.754Z,83.45
2019-02-09T03:18:33.699Z,83.45
2019-02-09T03:19:33.619Z,83.31
2019-02-09T03:20:33.616Z,82.69
2019-02-09T03:21:33.605Z,82.69
2019-02-09T03:22:33.584Z,82.73
2019-02-09T03:23:33.675Z,82.18
2019-02-09T03:24:33.669Z,82.90
2019-02-09T03:25:33.617Z,82.07
2019-02-09T03:26:33.616Z,81.35
2019-02-09T03:27:33.534Z,81.35
2019-02-09T03:28:33.549Z,82.18
2019-02-09T03:29:33.519Z,81.35
2019-02-09T03:30:46.605Z,81.05
2019-02-09T03:31:34.577Z,81.05
2019-02-09T03:32:33.504Z,81.05
2019-02-09T03:33:33.490Z,81.05
2019-02-09T03:34:33.438Z,81.15
2019-02-09T03:35:33.580Z,80.43
2019-02-09T03:36:33.443Z,80.43
2019-02-09T03:37:33.479Z,80.53
2019-02-09T03:38:33.402Z,80.33
2019-02-09T03:39:33.596Z,80.22
2019-02-09T03:40:33.405Z,80.80
2019-02-09T03:41:33.417Z,80.53
2019-02-09T03:42:33.443Z,79.71
2019-02-09T03:43:33.363Z,80.63
2019-02-09T03:44:33.340Z,79.57
2019-02-09T03:45:33.328Z,80.08
2019-02-09T03:46:33.322Z,79.40
2019-02-09T03:47:33.416Z,79.88
2019-02-09T03:48:33.352Z,80.33
2019-02-09T03:49:33.303Z,79.61
2019-02-09T03:50:33.356Z,79.91
2019-02-09T03:51:33.286Z,79.98
2019-02-09T03:52:33.317Z,79.61
2019-02-09T03:53:33.252Z,79.19
2019-02-09T03:54:33.230Z,79.50
2019-02-09T03:55:33.360Z,79.71
2019-02-09T03:56:33.221Z,79.61
2019-02-09T03:57:33.199Z,79.50
2019-02-09T03:58:33.344Z,79.19
2019-02-09T03:59:33.178Z,79.61
2019-02-09T04:00:33.176Z,79.61
2019-02-09T04:01:33.163Z,79.40
2019-02-09T04:02:33.157Z,79.19
2019-02-09T04:03:33.276Z,79.81
2019-02-09T04:04:33.120Z,80.33
2019-02-09T04:05:33.206Z,79.50
2019-02-09T04:06:33.119Z,80.12
2019-02-09T04:07:33.100Z,79.91
2019-02-09T04:08:33.084Z,79.50
2019-02-09T04:09:33.073Z,79.61
2019-02-09T04:10:33.092Z,80.22
2019-02-09T04:11:33.049Z,80.39
2019-02-09T04:12:33.035Z,79.71
2019-02-09T04:13:33.035Z,79.81
2019-02-09T04:14:33.011Z,79.71
2019-02-09T04:15:33.008Z,79.71
2019-02-09T04:16:33.035Z,80.33
2019-02-09T04:17:32.976Z,80.33
2019-02-09T04:18:32.973Z,80.43
2019-02-09T04:19:33.564Z,80.53
2019-02-09T04:20:32.954Z,80.53
2019-02-09T04:21:32.958Z,80.53
2019-02-09T04:22:33.048Z,80.43
2019-02-09T04:23:32.935Z,80.43
2019-02-09T04:24:32.909Z,80.53
2019-02-09T04:25:32.900Z,80.84
2019-02-09T04:26:32.987Z,80.63
2019-02-09T04:27:32.943Z,80.33
2019-02-09T04:28:32.856Z,81.09
2019-02-09T04:29:32.851Z,80.67
2019-02-09T04:30:32.840Z,80.67
2019-02-09T04:31:32.836Z,80.53
2019-02-09T04:32:32.879Z,80.74
2019-02-09T04:33:32.791Z,80.57
2019-02-09T04:34:32.869Z,80.88
2019-02-09T04:35:33.561Z,80.33
2019-02-09T04:36:32.766Z,80.98
2019-02-09T04:37:32.771Z,80.63
2019-02-09T04:38:32.890Z,79.23
2019-02-09T04:39:32.750Z,79.19
2019-02-09T04:40:32.784Z,79.03
2019-02-09T04:41:32.747Z,79.33
2019-02-09T04:42:32.742Z,79.19
2019-02-09T04:43:32.719Z,79.33
2019-02-09T04:44:32.719Z,77.89
2019-02-09T04:45:32.723Z,77.75
2019-02-09T04:46:32.647Z,77.65
2019-02-09T04:47:32.712Z,78.17
2019-02-09T04:48:32.645Z,77.75
2019-02-09T04:49:32.629Z,78.00
2019-02-09T04:50:32.659Z,77.86
2019-02-09T04:51:32.605Z,78.10
2019-02-09T04:52:32.611Z,77.86
2019-02-09T04:53:32.701Z,77.86
2019-02-09T04:54:32.585Z,77.75
2019-02-09T04:55:32.551Z,77.86
2019-02-09T04:56:32.590Z,77.75
2019-02-09T04:57:32.536Z,77.79
2019-02-09T04:58:32.600Z,77.96
2019-02-09T04:59:32.612Z,77.79
2019-02-09T05:00:32.491Z,78.10
2019-02-09T05:01:32.526Z,78.00
2019-02-09T05:02:32.542Z,78.27
2019-02-09T05:03:32.481Z,77.58
2019-02-09T05:04:32.559Z,78.10
2019-02-09T05:05:32.540Z,78.20
2019-02-09T05:06:32.435Z,78.20
2019-02-09T05:07:32.441Z,77.58
2019-02-09T05:08:32.418Z,77.79
2019-02-09T05:09:32.442Z,78.10
2019-02-09T05:10:32.471Z,78.51
2019-02-09T05:11:32.399Z,78.51
2019-02-09T05:12:32.403Z,78.72
2019-02-09T05:13:32.351Z,79.23
2019-02-09T05:14:32.373Z,79.03
2019-02-09T05:15:32.377Z,78.92
2019-02-09T05:16:32.363Z,79.03
2019-02-09T05:17:32.374Z,79.23
2019-02-09T05:18:32.402Z,79.64
2019-02-09T05:19:32.315Z,79.13
2019-02-09T05:20:32.306Z,79.33
2019-02-09T05:21:32.264Z,79.33
2019-02-09T05:22:32.255Z,79.23
2019-02-09T05:23:32.257Z,79.03
2019-02-09T05:24:32.326Z,79.64
2019-02-09T05:25:32.245Z,79.85
2019-02-09T05:26:32.203Z,79.03
2019-02-09T05:27:32.201Z,79.13
2019-02-09T05:28:32.216Z,78.82
2019-02-09T05:29:32.193Z,79.13
2019-02-09T05:30:32.216Z,79.54
2019-02-09T05:31:32.153Z,79.64
2019-02-09T05:32:32.150Z,79.64
2019-02-09T05:33:32.142Z,79.23
2019-02-09T05:34:32.294Z,79.54
2019-02-09T05:35:32.169Z,79.54
2019-02-09T05:36:32.162Z,79.40
2019-02-09T05:37:32.098Z,79.54
2019-02-09T05:38:32.068Z,79.75
2019-02-09T05:39:33.823Z,79.71
2019-02-09T05:40:32.147Z,79.54
2019-02-09T05:41:32.585Z,80.43
2019-02-09T05:42:32.203Z,80.63
2019-02-09T05:43:32.034Z,79.91
2019-02-09T05:44:32.025Z,78.68
2019-02-09T05:45:32.072Z,79.09
2019-02-09T05:46:31.984Z,78.99
2019-02-09T05:47:31.977Z,78.99
2019-02-09T05:48:31.998Z,78.37
2019-02-09T05:49:31.976Z,78.51
2019-02-09T05:50:31.937Z,79.09
2019-02-09T05:51:32.031Z,78.68
2019-02-09T05:52:32.016Z,78.68
2019-02-09T05:53:31.912Z,78.51
2019-02-09T05:54:31.907Z,78.51
2019-02-09T05:55:31.881Z,78.30
2019-02-09T05:56:31.867Z,79.54
2019-02-09T05:57:32.574Z,78.51
2019-02-09T05:58:31.938Z,78.72
2019-02-09T05:59:31.877Z,78.51
2019-02-09T06:00:31.825Z,78.82
2019-02-09T06:01:32.703Z,78.51
2019-02-09T06:02:31.806Z,78.30
2019-02-09T06:03:31.852Z,78.41
2019-02-09T06:04:31.801Z,78.41
2019-02-09T06:05:31.776Z,77.89
2019-02-09T06:06:31.775Z,77.89
2019-02-09T06:07:31.748Z,79.50
2019-02-09T06:08:31.820Z,78.37
2019-02-09T06:09:31.749Z,77.41
2019-02-09T06:10:31.709Z,77.10
2019-02-09T06:11:31.709Z,76.18
2019-02-09T06:12:31.698Z,76.28
2019-02-09T06:13:31.684Z,76.90
2019-02-09T06:14:31.877Z,76.90
2019-02-09T06:15:31.660Z,77.34
2019-02-09T06:16:31.669Z,77.00
2019-02-09T06:17:31.705Z,77.75
2019-02-09T06:18:31.647Z,77.72
2019-02-09T06:19:31.684Z,77.41
2019-02-09T06:20:31.671Z,77.45
2019-02-09T06:21:31.608Z,78.27
2019-02-09T06:22:31.583Z,78.06
2019-02-09T06:23:31.582Z,78.10
2019-02-09T06:24:31.562Z,78.06
2019-02-09T06:25:31.619Z,77.45
2019-02-09T06:26:31.532Z,78.20
2019-02-09T06:27:31.517Z,78.27
2019-02-09T06:28:31.554Z,78.68
2019-02-09T06:29:31.489Z,79.03
2019-02-09T06:30:31.503Z,79.75
2019-02-09T06:31:31.538Z,80.33
2019-02-09T06:32:31.472Z,80.67
2019-02-09T06:33:31.458Z,80.88
2019-02-09T06:34:31.456Z,81.81
2019-02-09T06:35:31.449Z,81.74
2019-02-09T06:36:31.498Z,81.43
2019-02-09T06:37:31.458Z,81.02
2019-02-09T06:38:32.080Z,81.02
2019-02-09T06:39:31.391Z,81.02
2019-02-09T06:40:31.388Z,81.23
2019-02-09T06:41:31.442Z,81.12
2019-02-09T06:42:31.380Z,81.12
2019-02-09T06:43:31.371Z,80.71
2019-02-09T06:44:31.317Z,81.02
2019-02-09T06:45:31.303Z,80.91
2019-02-09T06:46:31.332Z,80.71
2019-02-09T06:47:31.326Z,80.51
2019-02-09T06:48:38.797Z,80.30
2019-02-09T06:49:31.322Z,81.12
2019-02-09T06:50:31.282Z,80.75
2019-02-09T06:51:31.302Z,81.02
2019-02-09T06:52:31.261Z,81.67
2019-02-09T06:53:31.268Z,81.88
2019-02-09T06:54:31.306Z,81.92
2019-02-09T06:55:31.236Z,81.92
2019-02-09T06:56:31.210Z,81.92
2019-02-09T06:57:31.231Z,81.92
2019-02-09T06:58:31.204Z,81.71
2019-02-09T06:59:31.268Z,81.30
2019-02-09T07:00:31.363Z,81.81
2019-02-09T07:01:31.158Z,81.81
2019-02-09T07:02:31.154Z,81.40
2019-02-09T07:03:31.137Z,82.02
2019-02-09T07:04:31.124Z,81.51
2019-02-09T07:05:31.170Z,81.40
2019-02-09T07:06:31.093Z,81.61
2019-02-09T07:07:31.178Z,82.23
2019-02-09T07:08:31.076Z,83.56
2019-02-09T07:09:31.109Z,84.91
2019-02-09T07:10:31.054Z,85.77
2019-02-09T07:11:31.075Z,86.39
2019-02-09T07:12:31.119Z,87.87
2019-02-09T07:13:31.021Z,88.90
2019-02-09T07:14:31.010Z,89.62
2019-02-09T07:15:31.027Z,91.52
2019-02-09T07:16:30.976Z,91.63
2019-02-09T07:17:31.041Z,92.04
2019-02-09T07:18:31.020Z,93.28
2019-02-09T07:19:30.957Z,93.90
2019-02-09T07:20:30.934Z,93.59
2019-02-09T07:21:31.057Z,93.43
2019-02-09T07:22:30.976Z,92.76
2019-02-09T07:23:30.961Z,93.84
2019-02-09T07:24:30.963Z,93.73
2019-02-09T07:25:30.894Z,93.73
2019-02-09T07:26:30.863Z,93.53
2019-02-09T07:27:30.869Z,93.73
2019-02-09T07:28:30.961Z,92.50
2019-02-09T07:29:30.818Z,92.08
2019-02-09T07:30:30.812Z,91.73
2019-02-09T07:31:30.793Z,90.39
2019-02-09T07:32:30.795Z,89.87
2019-02-09T07:33:30.772Z,89.15
2019-02-09T07:34:30.842Z,87.40
2019-02-09T07:35:30.782Z,87.92
2019-02-09T07:36:30.809Z,87.08
2019-02-09T07:37:30.885Z,86.26
2019-02-09T07:38:30.734Z,85.85
2019-02-09T07:39:30.706Z,85.85
2019-02-09T07:40:30.820Z,86.47
2019-02-09T07:41:31.715Z,86.05
2019-02-09T07:42:32.120Z,85.60
2019-02-09T07:43:30.694Z,86.78
2019-02-09T07:44:31.625Z,85.44
2019-02-09T07:45:30.659Z,86.78
2019-02-09T07:46:30.634Z,86.68
2019-02-09T07:47:30.645Z,86.36
2019-02-09T07:48:30.626Z,86.47
2019-02-09T07:49:30.601Z,87.92
2019-02-09T07:50:30.632Z,86.16
2019-02-09T07:51:30.610Z,86.78
2019-02-09T07:52:30.574Z,87.92
2019-02-09T07:53:30.727Z,87.50
2019-02-09T07:54:30.565Z,87.60
2019-02-09T07:55:30.553Z,87.40
2019-02-09T07:56:30.605Z,87.60
2019-02-09T07:57:30.554Z,88.22
2019-02-09T07:58:30.568Z,86.78
2019-02-09T07:59:30.500Z,86.88
2019-02-09T08:00:30.508Z,87.92
2019-02-09T08:01:31.119Z,87.08
2019-02-09T08:02:30.478Z,86.57
2019-02-09T08:03:30.460Z,85.85
2019-02-09T08:04:30.535Z,86.36
2019-02-09T08:05:30.441Z,86.63
2019-02-09T08:06:30.425Z,86.12
2019-02-09T08:07:30.411Z,85.60
2019-02-09T08:08:30.403Z,85.71
2019-02-09T08:09:30.393Z,85.71
2019-02-09T08:10:30.479Z,85.71
2019-02-09T08:11:30.424Z,85.91
2019-02-09T08:12:30.401Z,84.47
2019-02-09T08:13:30.384Z,84.88
2019-02-09T08:14:30.336Z,84.74
2019-02-09T08:15:30.331Z,84.88
2019-02-09T08:16:30.345Z,84.01
2019-02-09T08:17:30.474Z,84.84
2019-02-09T08:18:30.293Z,84.80
2019-02-09T08:19:30.316Z,83.61
2019-02-09T08:20:30.287Z,84.19
2019-02-09T08:21:30.260Z,84.12
2019-02-09T08:22:31.129Z,83.47
2019-02-09T08:23:30.273Z,82.54
2019-02-09T08:24:30.378Z,82.64
2019-02-09T08:25:30.235Z,82.29
2019-02-09T08:26:30.272Z,82.70
2019-02-09T08:27:30.190Z,81.37
2019-02-09T08:28:30.167Z,80.75
2019-02-09T08:29:30.266Z,80.65
2019-02-09T08:30:30.163Z,80.40
2019-02-09T08:31:30.163Z,79.68
2019-02-09T08:32:30.142Z,79.68
2019-02-09T08:33:30.178Z,79.27
2019-02-09T08:34:30.125Z,80.36
2019-02-09T08:35:30.164Z,78.72
2019-02-09T08:36:31.126Z,79.64
2019-02-09T08:37:30.119Z,78.30
2019-02-09T08:38:30.063Z,77.79
2019-02-09T08:39:30.063Z,78.10
2019-02-09T08:40:30.054Z,78.20
2019-02-09T08:41:30.041Z,78.20
2019-02-09T08:42:30.153Z,77.07
2019-02-09T08:43:30.062Z,78.17
2019-02-09T08:44:29.993Z,76.62
2019-02-09T08:45:30.022Z,77.07
2019-02-09T08:46:29.955Z,77.69
2019-02-09T08:47:30.000Z,76.52
2019-02-09T08:48:30.031Z,76.42
2019-02-09T08:49:29.969Z,76.28
2019-02-09T08:50:30.007Z,74.95
2019-02-09T08:51:30.014Z,75.25
2019-02-09T08:52:29.914Z,74.84
2019-02-09T08:53:29.902Z,75.35
2019-02-09T08:54:29.889Z,73.91
2019-02-09T08:55:29.884Z,74.74
2019-02-09T08:56:29.887Z,74.19
2019-02-09T08:57:30.032Z,75.15
2019-02-09T08:58:29.865Z,74.08
2019-02-09T08:59:29.838Z,73.27
2019-02-09T09:00:29.900Z,73.57
2019-02-09T09:01:29.868Z,73.68
2019-02-09T09:02:29.799Z,73.16
2019-02-09T09:03:29.791Z,72.75
2019-02-09T09:04:29.779Z,73.27
2019-02-09T09:05:29.775Z,72.96
2019-02-09T09:06:29.846Z,72.85
2019-02-09T09:07:30.760Z,72.75
2019-02-09T09:08:29.743Z,72.85
2019-02-09T09:09:29.736Z,73.06
2019-02-09T09:10:29.711Z,73.06
2019-02-09T09:11:29.705Z,71.79
2019-02-09T09:12:29.746Z,72.61
2019-02-09T09:13:29.756Z,71.28
2019-02-09T09:14:29.731Z,70.76
2019-02-09T09:15:29.663Z,71.17
2019-02-09T09:16:29.680Z,71.08
2019-02-09T09:17:29.639Z,70.73
2019-02-09T09:18:29.637Z,70.32
2019-02-09T09:19:29.618Z,70.42
2019-02-09T09:20:29.652Z,71.25
2019-02-09T09:21:29.588Z,70.32
2019-02-09T09:22:29.583Z,70.94
2019-02-09T09:23:29.622Z,69.81
2019-02-09T09:24:29.563Z,69.29
2019-02-09T09:25:29.549Z,68.99
2019-02-09T09:26:29.577Z,69.70
2019-02-09T09:27:29.517Z,69.19
2019-02-09T09:28:29.524Z,69.29
2019-02-09T09:29:29.570Z,69.29
2019-02-09T09:30:29.492Z,69.19
2019-02-09T09:31:29.514Z,68.88
2019-02-09T09:32:29.495Z,67.35
2019-02-09T09:33:29.457Z,66.73
2019-02-09T09:34:29.428Z,66.63
2019-02-09T09:35:29.432Z,66.83
2019-02-09T09:36:29.464Z,66.73
2019-02-09T09:37:29.423Z,66.70
2019-02-09T09:38:29.421Z,66.80
2019-02-09T09:39:29.392Z,67.44
2019-02-09T09:40:29.368Z,67.76
2019-02-09T09:41:29.400Z,68.27
2019-02-09T09:42:29.382Z,68.03
2019-02-09T09:43:29.384Z,67.83
2019-02-09T09:44:29.337Z,67.86
2019-02-09T09:45:29.339Z,67.41
2019-02-09T09:46:29.305Z,68.13
2019-02-09T09:47:29.300Z,68.34
2019-02-09T09:48:29.301Z,68.13
2019-02-09T09:49:29.340Z,67.93
2019-02-09T09:50:29.244Z,67.83
2019-02-09T09:51:29.244Z,67.41
2019-02-09T09:52:29.304Z,68.24
2019-02-09T09:53:29.380Z,67.83
2019-02-09T09:54:29.262Z,68.27
2019-02-09T09:55:29.218Z,68.13
2019-02-09T09:56:29.328Z,68.24
2019-02-09T09:57:29.184Z,67.65
2019-02-09T09:58:29.173Z,67.93
2019-02-09T09:59:29.174Z,67.32
2019-02-09T10:00:29.266Z,67.52
2019-02-09T10:01:29.141Z,67.59
2019-02-09T10:02:36.311Z,67.52
2019-02-09T10:03:30.128Z,67.41
2019-02-09T10:04:29.112Z,67.21
2019-02-09T10:05:29.127Z,67.69
2019-02-09T10:06:29.120Z,67.59
2019-02-09T10:07:29.081Z,67.49
2019-02-09T10:08:29.092Z,67.08
2019-02-09T10:09:29.043Z,67.59
2019-02-09T10:10:29.074Z,67.79
2019-02-09T10:11:29.051Z,67.08
2019-02-09T10:12:29.094Z,66.77
2019-02-09T10:13:29.011Z,66.97
2019-02-09T10:14:29.007Z,66.97
2019-02-09T10:15:29.145Z,67.76
2019-02-09T10:16:28.975Z,67.35
2019-02-09T10:17:29.027Z,66.02
2019-02-09T10:18:28.942Z,65.17
2019-02-09T10:19:28.969Z,65.71
2019-02-09T10:20:28.996Z,65.81
2019-02-09T10:21:28.919Z,65.81
2019-02-09T10:22:29.044Z,65.51
2019-02-09T10:23:29.082Z,66.22
2019-02-09T10:24:29.003Z,65.41
2019-02-09T10:25:28.853Z,66.22
2019-02-09T10:26:28.934Z,65.44
2019-02-09T10:27:28.835Z,65.54
2019-02-09T10:28:28.955Z,66.56
2019-02-09T10:29:28.814Z,68.10
2019-02-09T10:30:28.806Z,67.79
2019-02-09T10:31:28.842Z,68.65
2019-02-09T10:32:28.785Z,68.85
2019-02-09T10:33:28.950Z,68.03
2019-02-09T10:34:28.754Z,68.37
2019-02-09T10:35:28.815Z,67.62
2019-02-09T10:36:28.949Z,67.62
2019-02-09T10:37:28.725Z,69.40
2019-02-09T10:38:28.720Z,71.14
2019-02-09T10:39:28.705Z,73.10
2019-02-09T10:40:28.691Z,72.72
2019-02-09T10:41:29.452Z,72.92
2019-02-09T10:42:28.667Z,72.31
2019-02-09T10:43:28.688Z,73.85
2019-02-09T10:44:28.820Z,73.13
2019-02-09T10:45:28.648Z,72.51
2019-02-09T10:46:28.635Z,70.97
2019-02-09T10:47:28.758Z,70.56
2019-02-09T10:48:28.629Z,70.22
2019-02-09T10:49:28.588Z,71.08
2019-02-09T10:50:28.719Z,71.08
2019-02-09T10:51:28.581Z,71.28
2019-02-09T10:52:28.680Z,69.40
2019-02-09T10:53:28.702Z,70.22
2019-02-09T10:54:28.533Z,70.53
2019-02-09T10:55:29.153Z,70.32
2019-02-09T10:56:28.558Z,70.94
2019-02-09T10:57:28.502Z,70.94
2019-02-09T10:58:28.575Z,71.31
2019-02-09T10:59:28.476Z,69.37
2019-02-09T11:00:28.473Z,69.88
2019-02-09T11:01:28.470Z,68.96
2019-02-09T11:02:28.555Z,69.16
2019-02-09T11:03:28.495Z,69.54
2019-02-09T11:04:28.443Z,69.06
2019-02-09T11:05:28.415Z,68.92
2019-02-09T11:06:28.444Z,67.59
2019-02-09T11:07:28.396Z,67.79
2019-02-09T11:08:28.393Z,67.59
2019-02-09T11:09:28.399Z,67.76
2019-02-09T11:10:28.354Z,67.46
2019-02-09T11:11:28.355Z,67.56
2019-02-09T11:12:28.335Z,67.08
2019-02-09T11:13:28.330Z,66.36
2019-02-09T11:14:28.324Z,66.16
2019-02-09T11:15:28.326Z,66.77
2019-02-09T11:16:28.327Z,66.77
2019-02-09T11:17:28.290Z,66.87
2019-02-09T11:18:28.265Z,66.87
2019-02-09T11:19:29.155Z,66.77
2019-02-09T11:20:28.282Z,66.77
2019-02-09T11:21:28.261Z,66.77
2019-02-09T11:22:28.287Z,66.56
2019-02-09T11:23:28.210Z,65.95
2019-02-09T11:24:28.198Z,66.25
2019-02-09T11:25:28.212Z,66.16
2019-02-09T11:26:28.190Z,66.05
2019-02-09T11:27:28.304Z,65.51
2019-02-09T11:28:28.166Z,65.30
2019-02-09T11:29:28.140Z,65.81
2019-02-09T11:30:28.143Z,65.61
2019-02-09T11:31:28.152Z,65.61
2019-02-09T11:32:28.110Z,65.30
2019-02-09T11:33:28.139Z,65.58
2019-02-09T11:34:28.086Z,65.07
2019-02-09T11:35:28.083Z,64.86
2019-02-09T11:36:28.071Z,64.97
2019-02-09T11:37:28.080Z,65.07
2019-02-09T11:38:28.102Z,64.35
2019-02-09T11:39:28.030Z,64.97
2019-02-09T11:40:28.020Z,64.65
2019-02-09T11:41:28.045Z,64.42
2019-02-09T11:42:35.383Z,63.94
2019-02-09T11:43:27.989Z,64.22
2019-02-09T11:44:27.988Z,63.70
2019-02-09T11:45:27.998Z,64.62
2019-02-09T11:46:27.963Z,63.94
2019-02-09T11:47:27.962Z,64.35
2019-02-09T11:48:27.977Z,64.56
2019-02-09T11:49:34.995Z,64.42
2019-02-09T11:50:27.909Z,64.94
2019-02-09T11:51:28.072Z,64.12
2019-02-09T11:52:27.892Z,64.12
2019-02-09T11:53:27.884Z,63.50
2019-02-09T11:54:27.864Z,63.60
2019-02-09T11:55:27.876Z,62.68
2019-02-09T11:56:27.894Z,62.27
2019-02-09T11:57:27.836Z,63.20
2019-02-09T11:58:27.824Z,63.40
2019-02-09T11:59:27.817Z,63.37
2019-02-09T12:00:27.799Z,63.40
2019-02-09T12:01:27.805Z,63.40
2019-02-09T12:02:27.894Z,63.20
2019-02-09T12:03:27.790Z,63.57
2019-02-09T12:04:27.770Z,63.91
2019-02-09T12:05:27.747Z,63.29
2019-02-09T12:06:27.737Z,63.40
2019-02-09T12:07:27.724Z,63.37
2019-02-09T12:08:27.731Z,63.57
2019-02-09T12:09:27.704Z,63.06
2019-02-09T12:10:27.688Z,63.37
2019-02-09T12:11:27.684Z,63.29
2019-02-09T12:12:27.663Z,63.50
2019-02-09T12:13:27.688Z,63.98
2019-02-09T12:14:27.639Z,64.01
2019-02-09T12:15:27.627Z,63.81
2019-02-09T12:16:27.633Z,64.01
2019-02-09T12:17:27.609Z,64.01
2019-02-09T12:18:27.740Z,64.12
2019-02-09T12:19:27.610Z,63.60
2019-02-09T12:20:27.575Z,63.29
2019-02-09T12:21:27.592Z,63.81
2019-02-09T12:22:27.550Z,63.81
2019-02-09T12:23:27.544Z,63.40
2019-02-09T12:24:27.553Z,63.57
2019-02-09T12:25:27.515Z,64.42
2019-02-09T12:26:27.507Z,63.88
2019-02-09T12:27:27.494Z,66.16
2019-02-09T12:28:27.499Z,68.83
2019-02-09T12:29:27.471Z,70.53
2019-02-09T12:30:27.494Z,71.39
2019-02-09T12:31:27.462Z,72.85
2019-02-09T12:32:27.449Z,73.81
2019-02-09T12:33:27.455Z,74.32
2019-02-09T12:34:27.627Z,75.66
2019-02-09T12:35:27.453Z,75.29
2019-02-09T12:36:27.401Z,74.87
2019-02-09T12:37:27.439Z,72.92
2019-02-09T12:38:27.376Z,74.12
2019-02-09T12:39:27.373Z,73.10
2019-02-09T12:40:27.373Z,74.94
2019-02-09T12:41:27.358Z,75.35
2019-02-09T12:42:27.339Z,73.81
2019-02-09T12:43:27.324Z,74.63
2019-02-09T12:44:27.340Z,75.04
2019-02-09T12:45:27.321Z,75.04
2019-02-09T12:46:27.309Z,74.63
2019-02-09T12:47:27.274Z,73.91
2019-02-09T12:48:27.264Z,74.74
2019-02-09T12:49:27.257Z,73.16
2019-02-09T12:50:27.249Z,73.10
2019-02-09T12:51:27.257Z,72.65
2019-02-09T12:52:27.212Z,72.34